sensor_id;sensor_type;location;lat;lon;timestamp;P1;durP1;ratioP1;P2;durP2;ratioP2
15082;SDS011;7640;53.116;6.878;2024-02-23T00:00:06;2.13;;;0.80;;
15082;SDS011;7640;53.116;6.878;2024-02-23T00:02:37;3.23;;;0.70;;
15082;SDS011;7640;53.116;6.878;2024-02-23T00:05:06;4.43;;;1.00;;
15082;SDS011;7640;53.116;6.878;2024-02-23T00:07:35;3.07;;;0.60;;
15082;SDS011;7640;53.116;6.878;2024-02-23T00:10:04;5.10;;;1.23;;
15082;SDS011;7640;53.116;6.878;2024-02-23T00:12:35;0.97;;;0.57;;
15082;SDS011;7640;53.116;6.878;2024-02-23T00:15:04;3.40;;;0.67;;
15082;SDS011;7640;53.116;6.878;2024-02-23T00:17:34;1.37;;;0.47;;
15082;SDS011;7640;53.116;6.878;2024-02-23T00:20:03;1.77;;;0.63;;
15082;SDS011;7640;53.116;6.878;2024-02-23T00:22:32;1.60;;;0.60;;
15082;SDS011;7640;53.116;6.878;2024-02-23T00:25:00;4.97;;;1.10;;
15082;SDS011;7640;53.116;6.878;2024-02-23T00:27:29;3.53;;;0.80;;
15082;SDS011;7640;53.116;6.878;2024-02-23T00:29:58;2.97;;;0.80;;
15082;SDS011;7640;53.116;6.878;2024-02-23T00:32:27;2.60;;;0.83;;
15082;SDS011;7640;53.116;6.878;2024-02-23T00:34:56;3.80;;;1.03;;
15082;SDS011;7640;53.116;6.878;2024-02-23T00:37:25;5.30;;;1.30;;
15082;SDS011;7640;53.116;6.878;2024-02-23T00:39:53;4.33;;;0.80;;
15082;SDS011;7640;53.116;6.878;2024-02-23T00:42:22;2.97;;;0.80;;
15082;SDS011;7640;53.116;6.878;2024-02-23T00:44:50;5.37;;;1.27;;
15082;SDS011;7640;53.116;6.878;2024-02-23T00:47:20;2.10;;;0.87;;
15082;SDS011;7640;53.116;6.878;2024-02-23T00:49:49;6.17;;;1.20;;
15082;SDS011;7640;53.116;6.878;2024-02-23T00:52:17;3.47;;;1.30;;
15082;SDS011;7640;53.116;6.878;2024-02-23T00:54:46;5.10;;;1.50;;
15082;SDS011;7640;53.116;6.878;2024-02-23T00:57:14;2.90;;;0.83;;
15082;SDS011;7640;53.116;6.878;2024-02-23T00:59:45;2.30;;;0.90;;
15082;SDS011;7640;53.116;6.878;2024-02-23T01:02:14;2.53;;;0.93;;
15082;SDS011;7640;53.116;6.878;2024-02-23T01:04:44;2.77;;;1.03;;
15082;SDS011;7640;53.116;6.878;2024-02-23T01:07:13;1.67;;;0.60;;
15082;SDS011;7640;53.116;6.878;2024-02-23T01:09:42;2.57;;;0.80;;
15082;SDS011;7640;53.116;6.878;2024-02-23T01:12:10;3.97;;;1.10;;
15082;SDS011;7640;53.116;6.878;2024-02-23T01:14:39;2.63;;;1.13;;
15082;SDS011;7640;53.116;6.878;2024-02-23T01:17:07;4.13;;;1.83;;
15082;SDS011;7640;53.116;6.878;2024-02-23T01:19:36;5.60;;;1.60;;
15082;SDS011;7640;53.116;6.878;2024-02-23T01:22:06;5.70;;;1.27;;
15082;SDS011;7640;53.116;6.878;2024-02-23T01:24:35;2.50;;;1.13;;
15082;SDS011;7640;53.116;6.878;2024-02-23T01:27:08;5.53;;;1.30;;
15082;SDS011;7640;53.116;6.878;2024-02-23T01:29:36;4.03;;;1.30;;
15082;SDS011;7640;53.116;6.878;2024-02-23T01:32:05;4.43;;;1.40;;
15082;SDS011;7640;53.116;6.878;2024-02-23T01:34:34;3.57;;;1.20;;
15082;SDS011;7640;53.116;6.878;2024-02-23T01:37:03;1.37;;;0.90;;
15082;SDS011;7640;53.116;6.878;2024-02-23T01:39:32;1.93;;;1.07;;
15082;SDS011;7640;53.116;6.878;2024-02-23T01:42:01;1.57;;;0.90;;
15082;SDS011;7640;53.116;6.878;2024-02-23T01:44:30;1.70;;;0.83;;
15082;SDS011;7640;53.116;6.878;2024-02-23T01:46:58;2.33;;;0.77;;
15082;SDS011;7640;53.116;6.878;2024-02-23T01:49:27;3.47;;;0.90;;
15082;SDS011;7640;53.116;6.878;2024-02-23T01:51:59;1.63;;;0.90;;
15082;SDS011;7640;53.116;6.878;2024-02-23T01:54:29;1.37;;;0.90;;
15082;SDS011;7640;53.116;6.878;2024-02-23T01:56:59;8.80;;;1.80;;
15082;SDS011;7640;53.116;6.878;2024-02-23T01:59:49;5.30;;;1.37;;
15082;SDS011;7640;53.116;6.878;2024-02-23T02:02:18;3.83;;;1.27;;
15082;SDS011;7640;53.116;6.878;2024-02-23T02:04:47;5.23;;;1.20;;
15082;SDS011;7640;53.116;6.878;2024-02-23T02:07:16;5.13;;;1.77;;
15082;SDS011;7640;53.116;6.878;2024-02-23T02:09:46;3.27;;;1.97;;
15082;SDS011;7640;53.116;6.878;2024-02-23T02:12:27;4.90;;;1.70;;
15082;SDS011;7640;53.116;6.878;2024-02-23T02:14:56;5.20;;;1.87;;
15082;SDS011;7640;53.116;6.878;2024-02-23T02:17:27;6.53;;;2.10;;
15082;SDS011;7640;53.116;6.878;2024-02-23T02:19:56;7.70;;;2.10;;
15082;SDS011;7640;53.116;6.878;2024-02-23T02:22:27;7.27;;;2.50;;
15082;SDS011;7640;53.116;6.878;2024-02-23T02:24:55;6.53;;;2.20;;
15082;SDS011;7640;53.116;6.878;2024-02-23T02:27:26;7.37;;;2.50;;
15082;SDS011;7640;53.116;6.878;2024-02-23T02:29:54;11.03;;;2.70;;
15082;SDS011;7640;53.116;6.878;2024-02-23T02:32:24;10.30;;;2.63;;
15082;SDS011;7640;53.116;6.878;2024-02-23T02:34:52;11.40;;;2.83;;
15082;SDS011;7640;53.116;6.878;2024-02-23T02:37:21;5.07;;;2.20;;
15082;SDS011;7640;53.116;6.878;2024-02-23T02:39:49;7.53;;;2.33;;
15082;SDS011;7640;53.116;6.878;2024-02-23T02:42:18;7.43;;;2.40;;
15082;SDS011;7640;53.116;6.878;2024-02-23T02:44:48;12.73;;;2.80;;
15082;SDS011;7640;53.116;6.878;2024-02-23T02:47:17;8.37;;;2.53;;
15082;SDS011;7640;53.116;6.878;2024-02-23T02:49:45;8.50;;;2.23;;
15082;SDS011;7640;53.116;6.878;2024-02-23T02:52:15;7.10;;;2.50;;
15082;SDS011;7640;53.116;6.878;2024-02-23T02:54:43;5.37;;;2.23;;
15082;SDS011;7640;53.116;6.878;2024-02-23T02:57:13;9.40;;;2.73;;
15082;SDS011;7640;53.116;6.878;2024-02-23T02:59:42;9.47;;;2.70;;
15082;SDS011;7640;53.116;6.878;2024-02-23T03:02:15;6.47;;;2.57;;
15082;SDS011;7640;53.116;6.878;2024-02-23T03:04:47;7.70;;;2.63;;
15082;SDS011;7640;53.116;6.878;2024-02-23T03:07:16;9.27;;;2.67;;
15082;SDS011;7640;53.116;6.878;2024-02-23T03:09:45;10.30;;;2.80;;
15082;SDS011;7640;53.116;6.878;2024-02-23T03:12:15;7.90;;;2.30;;
15082;SDS011;7640;53.116;6.878;2024-02-23T03:14:44;11.60;;;2.10;;
15082;SDS011;7640;53.116;6.878;2024-02-23T03:17:12;6.03;;;2.10;;
15082;SDS011;7640;53.116;6.878;2024-02-23T03:19:43;8.90;;;2.07;;
15082;SDS011;7640;53.116;6.878;2024-02-23T03:22:12;11.00;;;2.53;;
15082;SDS011;7640;53.116;6.878;2024-02-23T03:24:40;11.73;;;2.80;;
15082;SDS011;7640;53.116;6.878;2024-02-23T03:27:09;9.27;;;2.37;;
15082;SDS011;7640;53.116;6.878;2024-02-23T03:29:38;10.30;;;3.40;;
15082;SDS011;7640;53.116;6.878;2024-02-23T03:32:07;5.77;;;1.90;;
15082;SDS011;7640;53.116;6.878;2024-02-23T03:34:37;13.60;;;3.40;;
15082;SDS011;7640;53.116;6.878;2024-02-23T03:37:05;9.63;;;2.50;;
15082;SDS011;7640;53.116;6.878;2024-02-23T03:39:34;9.03;;;2.60;;
15082;SDS011;7640;53.116;6.878;2024-02-23T03:42:03;7.50;;;2.70;;
15082;SDS011;7640;53.116;6.878;2024-02-23T03:44:32;11.47;;;2.80;;
15082;SDS011;7640;53.116;6.878;2024-02-23T03:47:00;8.60;;;2.23;;
15082;SDS011;7640;53.116;6.878;2024-02-23T03:49:29;5.00;;;2.30;;
15082;SDS011;7640;53.116;6.878;2024-02-23T03:51:59;10.67;;;2.77;;
15082;SDS011;7640;53.116;6.878;2024-02-23T03:54:28;7.20;;;2.57;;
15082;SDS011;7640;53.116;6.878;2024-02-23T03:56:57;8.93;;;2.50;;
15082;SDS011;7640;53.116;6.878;2024-02-23T03:59:26;10.40;;;2.60;;
15082;SDS011;7640;53.116;6.878;2024-02-23T04:01:55;14.17;;;3.47;;
15082;SDS011;7640;53.116;6.878;2024-02-23T04:04:23;9.97;;;2.60;;
15082;SDS011;7640;53.116;6.878;2024-02-23T04:06:52;8.30;;;2.30;;
15082;SDS011;7640;53.116;6.878;2024-02-23T04:09:22;11.20;;;2.13;;
15082;SDS011;7640;53.116;6.878;2024-02-23T04:11:51;8.53;;;2.70;;
15082;SDS011;7640;53.116;6.878;2024-02-23T04:14:20;8.70;;;2.33;;
15082;SDS011;7640;53.116;6.878;2024-02-23T04:16:49;7.60;;;2.60;;
15082;SDS011;7640;53.116;6.878;2024-02-23T04:19:17;7.10;;;2.30;;
15082;SDS011;7640;53.116;6.878;2024-02-23T04:21:46;11.70;;;3.00;;
15082;SDS011;7640;53.116;6.878;2024-02-23T04:24:14;15.93;;;2.80;;
15082;SDS011;7640;53.116;6.878;2024-02-23T04:26:44;9.37;;;2.37;;
15082;SDS011;7640;53.116;6.878;2024-02-23T04:29:13;5.17;;;2.30;;
15082;SDS011;7640;53.116;6.878;2024-02-23T04:31:42;9.47;;;2.77;;
15082;SDS011;7640;53.116;6.878;2024-02-23T04:34:10;9.77;;;2.97;;
15082;SDS011;7640;53.116;6.878;2024-02-23T04:36:39;13.10;;;2.70;;
15082;SDS011;7640;53.116;6.878;2024-02-23T04:39:08;8.97;;;2.50;;
15082;SDS011;7640;53.116;6.878;2024-02-23T04:41:36;9.63;;;2.40;;
15082;SDS011;7640;53.116;6.878;2024-02-23T04:44:07;11.53;;;3.00;;
15082;SDS011;7640;53.116;6.878;2024-02-23T04:46:37;10.53;;;2.90;;
15082;SDS011;7640;53.116;6.878;2024-02-23T04:49:06;9.10;;;2.63;;
15082;SDS011;7640;53.116;6.878;2024-02-23T04:51:35;8.13;;;2.70;;
15082;SDS011;7640;53.116;6.878;2024-02-23T04:54:04;7.20;;;2.13;;
15082;SDS011;7640;53.116;6.878;2024-02-23T04:56:32;8.60;;;2.43;;
15082;SDS011;7640;53.116;6.878;2024-02-23T04:59:01;4.47;;;1.90;;
15082;SDS011;7640;53.116;6.878;2024-02-23T05:01:36;7.87;;;2.33;;
15082;SDS011;7640;53.116;6.878;2024-02-23T05:04:05;7.77;;;2.03;;
15082;SDS011;7640;53.116;6.878;2024-02-23T05:06:35;5.17;;;1.93;;
15082;SDS011;7640;53.116;6.878;2024-02-23T05:09:04;10.00;;;1.97;;
15082;SDS011;7640;53.116;6.878;2024-02-23T05:11:35;5.57;;;1.90;;
15082;SDS011;7640;53.116;6.878;2024-02-23T05:14:05;6.43;;;1.80;;
15082;SDS011;7640;53.116;6.878;2024-02-23T05:16:36;7.53;;;1.90;;
15082;SDS011;7640;53.116;6.878;2024-02-23T05:19:05;7.97;;;2.20;;
15082;SDS011;7640;53.116;6.878;2024-02-23T05:21:33;10.73;;;3.33;;
15082;SDS011;7640;53.116;6.878;2024-02-23T05:24:02;5.97;;;2.70;;
15082;SDS011;7640;53.116;6.878;2024-02-23T05:26:32;10.03;;;3.10;;
15082;SDS011;7640;53.116;6.878;2024-02-23T05:29:01;10.40;;;3.67;;
15082;SDS011;7640;53.116;6.878;2024-02-23T05:31:44;10.33;;;4.10;;
15082;SDS011;7640;53.116;6.878;2024-02-23T05:34:16;10.20;;;4.47;;
15082;SDS011;7640;53.116;6.878;2024-02-23T05:36:46;8.97;;;4.87;;
15082;SDS011;7640;53.116;6.878;2024-02-23T05:39:16;10.90;;;5.07;;
15082;SDS011;7640;53.116;6.878;2024-02-23T05:41:44;11.87;;;5.77;;
15082;SDS011;7640;53.116;6.878;2024-02-23T05:44:13;9.83;;;5.60;;
15082;SDS011;7640;53.116;6.878;2024-02-23T05:46:43;12.43;;;6.23;;
15082;SDS011;7640;53.116;6.878;2024-02-23T05:49:12;12.13;;;7.30;;
15082;SDS011;7640;53.116;6.878;2024-02-23T05:51:40;9.33;;;6.50;;
15082;SDS011;7640;53.116;6.878;2024-02-23T05:54:09;11.63;;;7.00;;
15082;SDS011;7640;53.116;6.878;2024-02-23T05:56:38;18.63;;;8.37;;
15082;SDS011;7640;53.116;6.878;2024-02-23T05:59:07;13.00;;;7.30;;
15082;SDS011;7640;53.116;6.878;2024-02-23T06:01:38;17.83;;;8.47;;
15082;SDS011;7640;53.116;6.878;2024-02-23T06:04:09;15.63;;;9.13;;
15082;SDS011;7640;53.116;6.878;2024-02-23T06:06:40;16.30;;;9.50;;
15082;SDS011;7640;53.116;6.878;2024-02-23T06:09:10;16.43;;;9.43;;
15082;SDS011;7640;53.116;6.878;2024-02-23T06:11:38;17.90;;;8.90;;
15082;SDS011;7640;53.116;6.878;2024-02-23T06:14:08;17.50;;;8.23;;
15082;SDS011;7640;53.116;6.878;2024-02-23T06:16:37;15.10;;;8.53;;
15082;SDS011;7640;53.116;6.878;2024-02-23T06:19:08;21.53;;;9.30;;
15082;SDS011;7640;53.116;6.878;2024-02-23T06:21:37;13.57;;;7.67;;
15082;SDS011;7640;53.116;6.878;2024-02-23T06:24:08;16.83;;;8.50;;
15082;SDS011;7640;53.116;6.878;2024-02-23T06:26:36;17.20;;;9.07;;
15082;SDS011;7640;53.116;6.878;2024-02-23T06:29:05;20.97;;;8.47;;
15082;SDS011;7640;53.116;6.878;2024-02-23T06:31:37;18.07;;;9.10;;
15082;SDS011;7640;53.116;6.878;2024-02-23T06:34:08;17.17;;;8.30;;
15082;SDS011;7640;53.116;6.878;2024-02-23T06:36:37;16.80;;;8.20;;
15082;SDS011;7640;53.116;6.878;2024-02-23T06:39:08;19.77;;;9.03;;
15082;SDS011;7640;53.116;6.878;2024-02-23T06:41:37;17.97;;;8.00;;
15082;SDS011;7640;53.116;6.878;2024-02-23T06:44:06;18.13;;;8.07;;
15082;SDS011;7640;53.116;6.878;2024-02-23T06:46:35;17.10;;;8.23;;
15082;SDS011;7640;53.116;6.878;2024-02-23T06:49:04;20.30;;;8.90;;
15082;SDS011;7640;53.116;6.878;2024-02-23T06:51:34;14.93;;;8.20;;
15082;SDS011;7640;53.116;6.878;2024-02-23T06:54:03;16.43;;;7.83;;
15082;SDS011;7640;53.116;6.878;2024-02-23T06:56:31;13.87;;;7.00;;
15082;SDS011;7640;53.116;6.878;2024-02-23T06:59:00;16.87;;;7.73;;
15082;SDS011;7640;53.116;6.878;2024-02-23T07:01:29;17.10;;;8.00;;
15082;SDS011;7640;53.116;6.878;2024-02-23T07:04:02;19.83;;;8.17;;
15082;SDS011;7640;53.116;6.878;2024-02-23T07:06:30;17.00;;;7.03;;
15082;SDS011;7640;53.116;6.878;2024-02-23T07:09:02;16.20;;;7.70;;
15082;SDS011;7640;53.116;6.878;2024-02-23T07:11:31;10.63;;;6.77;;
15082;SDS011;7640;53.116;6.878;2024-02-23T07:13:59;12.93;;;6.17;;
15082;SDS011;7640;53.116;6.878;2024-02-23T07:16:28;18.23;;;7.50;;
15082;SDS011;7640;53.116;6.878;2024-02-23T07:18:57;14.67;;;7.57;;
15082;SDS011;7640;53.116;6.878;2024-02-23T07:21:25;18.00;;;7.40;;
15082;SDS011;7640;53.116;6.878;2024-02-23T07:23:54;14.77;;;6.70;;
15082;SDS011;7640;53.116;6.878;2024-02-23T07:26:24;13.20;;;5.93;;
15082;SDS011;7640;53.116;6.878;2024-02-23T07:28:54;12.93;;;7.23;;
15082;SDS011;7640;53.116;6.878;2024-02-23T07:31:23;14.10;;;7.17;;
15082;SDS011;7640;53.116;6.878;2024-02-23T07:33:52;13.73;;;7.10;;
15082;SDS011;7640;53.116;6.878;2024-02-23T07:36:20;14.70;;;7.57;;
15082;SDS011;7640;53.116;6.878;2024-02-23T07:38:49;15.97;;;6.40;;
15082;SDS011;7640;53.116;6.878;2024-02-23T07:41:18;13.37;;;7.13;;
15082;SDS011;7640;53.116;6.878;2024-02-23T07:43:48;14.93;;;7.00;;
15082;SDS011;7640;53.116;6.878;2024-02-23T07:46:17;15.73;;;7.03;;
15082;SDS011;7640;53.116;6.878;2024-02-23T07:48:44;13.73;;;6.47;;
15082;SDS011;7640;53.116;6.878;2024-02-23T07:51:15;11.97;;;6.93;;
15082;SDS011;7640;53.116;6.878;2024-02-23T07:53:43;15.67;;;6.93;;
15082;SDS011;7640;53.116;6.878;2024-02-23T07:56:12;14.60;;;6.00;;
15082;SDS011;7640;53.116;6.878;2024-02-23T07:58:41;10.73;;;6.40;;
15082;SDS011;7640;53.116;6.878;2024-02-23T08:01:10;12.93;;;6.43;;
15082;SDS011;7640;53.116;6.878;2024-02-23T08:03:39;9.00;;;5.33;;
15082;SDS011;7640;53.116;6.878;2024-02-23T08:06:09;11.87;;;5.93;;
15082;SDS011;7640;53.116;6.878;2024-02-23T08:08:39;8.43;;;5.10;;
15082;SDS011;7640;53.116;6.878;2024-02-23T08:11:08;11.93;;;5.43;;
15082;SDS011;7640;53.116;6.878;2024-02-23T08:13:37;8.87;;;3.83;;
15082;SDS011;7640;53.116;6.878;2024-02-23T08:16:05;6.17;;;3.37;;
15082;SDS011;7640;53.116;6.878;2024-02-23T08:18:35;10.93;;;4.13;;
15082;SDS011;7640;53.116;6.878;2024-02-23T08:21:05;7.83;;;4.30;;
15082;SDS011;7640;53.116;6.878;2024-02-23T08:23:35;7.43;;;3.70;;
15082;SDS011;7640;53.116;6.878;2024-02-23T08:26:03;6.83;;;3.87;;
15082;SDS011;7640;53.116;6.878;2024-02-23T08:28:33;8.83;;;4.30;;
15082;SDS011;7640;53.116;6.878;2024-02-23T08:31:02;7.33;;;3.50;;
15082;SDS011;7640;53.116;6.878;2024-02-23T08:33:31;9.60;;;3.77;;
15082;SDS011;7640;53.116;6.878;2024-02-23T08:36:01;7.47;;;3.00;;
15082;SDS011;7640;53.116;6.878;2024-02-23T08:38:32;5.37;;;3.03;;
15082;SDS011;7640;53.116;6.878;2024-02-23T08:41:00;7.57;;;3.00;;
15082;SDS011;7640;53.116;6.878;2024-02-23T08:43:30;8.47;;;3.40;;
15082;SDS011;7640;53.116;6.878;2024-02-23T08:45:58;7.10;;;3.10;;
15082;SDS011;7640;53.116;6.878;2024-02-23T08:48:33;4.37;;;2.70;;
15082;SDS011;7640;53.116;6.878;2024-02-23T08:51:03;9.63;;;2.77;;
15082;SDS011;7640;53.116;6.878;2024-02-23T08:53:32;7.50;;;2.73;;
15082;SDS011;7640;53.116;6.878;2024-02-23T08:56:00;4.53;;;2.97;;
15082;SDS011;7640;53.116;6.878;2024-02-23T08:58:29;8.27;;;2.67;;
15082;SDS011;7640;53.116;6.878;2024-02-23T09:00:58;7.17;;;2.90;;
15082;SDS011;7640;53.116;6.878;2024-02-23T09:03:27;6.73;;;2.83;;
15082;SDS011;7640;53.116;6.878;2024-02-23T09:05:56;5.13;;;2.73;;
15082;SDS011;7640;53.116;6.878;2024-02-23T09:08:26;7.17;;;3.03;;
15082;SDS011;7640;53.116;6.878;2024-02-23T09:10:54;4.97;;;2.80;;
15082;SDS011;7640;53.116;6.878;2024-02-23T09:13:23;6.03;;;2.93;;
15082;SDS011;7640;53.116;6.878;2024-02-23T09:15:53;8.13;;;2.77;;
15082;SDS011;7640;53.116;6.878;2024-02-23T09:18:21;5.90;;;2.77;;
15082;SDS011;7640;53.116;6.878;2024-02-23T09:20:50;7.07;;;2.80;;
15082;SDS011;7640;53.116;6.878;2024-02-23T09:23:18;7.43;;;2.47;;
15082;SDS011;7640;53.116;6.878;2024-02-23T09:25:48;9.60;;;2.60;;
15082;SDS011;7640;53.116;6.878;2024-02-23T09:28:17;7.30;;;2.37;;
15082;SDS011;7640;53.116;6.878;2024-02-23T09:30:45;6.77;;;3.03;;
15082;SDS011;7640;53.116;6.878;2024-02-23T09:33:14;5.30;;;2.93;;
15082;SDS011;7640;53.116;6.878;2024-02-23T09:35:43;5.13;;;2.07;;
15082;SDS011;7640;53.116;6.878;2024-02-23T09:38:13;9.63;;;2.27;;
15082;SDS011;7640;53.116;6.878;2024-02-23T09:40:42;3.90;;;1.60;;
15082;SDS011;7640;53.116;6.878;2024-02-23T09:43:12;4.50;;;2.17;;
15082;SDS011;7640;53.116;6.878;2024-02-23T09:45:43;4.77;;;2.00;;
15082;SDS011;7640;53.116;6.878;2024-02-23T09:48:14;8.00;;;2.00;;
15082;SDS011;7640;53.116;6.878;2024-02-23T09:50:45;5.83;;;1.90;;
15082;SDS011;7640;53.116;6.878;2024-02-23T09:53:15;6.03;;;1.50;;
15082;SDS011;7640;53.116;6.878;2024-02-23T09:55:48;4.73;;;2.07;;
15082;SDS011;7640;53.116;6.878;2024-02-23T09:58:20;4.43;;;1.80;;
15082;SDS011;7640;53.116;6.878;2024-02-23T10:00:50;6.57;;;1.80;;
15082;SDS011;7640;53.116;6.878;2024-02-23T10:03:19;5.70;;;1.80;;
15082;SDS011;7640;53.116;6.878;2024-02-23T10:05:52;5.20;;;1.90;;
15082;SDS011;7640;53.116;6.878;2024-02-23T10:08:21;7.70;;;1.73;;
15082;SDS011;7640;53.116;6.878;2024-02-23T10:10:49;5.70;;;1.70;;
15082;SDS011;7640;53.116;6.878;2024-02-23T10:13:18;2.77;;;1.60;;
15082;SDS011;7640;53.116;6.878;2024-02-23T10:15:50;5.57;;;1.83;;
15082;SDS011;7640;53.116;6.878;2024-02-23T10:18:39;4.97;;;1.43;;
15082;SDS011;7640;53.116;6.878;2024-02-23T10:21:08;3.80;;;1.30;;
15082;SDS011;7640;53.116;6.878;2024-02-23T10:23:37;6.10;;;1.97;;
15082;SDS011;7640;53.116;6.878;2024-02-23T10:26:08;5.87;;;1.90;;
15082;SDS011;7640;53.116;6.878;2024-02-23T10:28:41;7.03;;;1.60;;
15082;SDS011;7640;53.116;6.878;2024-02-23T10:31:10;7.33;;;1.70;;
15082;SDS011;7640;53.116;6.878;2024-02-23T10:33:39;4.90;;;1.70;;
15082;SDS011;7640;53.116;6.878;2024-02-23T10:36:09;5.70;;;1.67;;
15082;SDS011;7640;53.116;6.878;2024-02-23T10:38:44;3.00;;;1.60;;
15082;SDS011;7640;53.116;6.878;2024-02-23T10:41:14;7.77;;;2.23;;
15082;SDS011;7640;53.116;6.878;2024-02-23T10:43:47;13.87;;;5.63;;
15082;SDS011;7640;53.116;6.878;2024-02-23T10:46:17;14.17;;;5.57;;
15082;SDS011;7640;53.116;6.878;2024-02-23T10:48:47;9.03;;;4.30;;
15082;SDS011;7640;53.116;6.878;2024-02-23T10:51:17;11.27;;;2.93;;
15082;SDS011;7640;53.116;6.878;2024-02-23T10:53:48;16.43;;;5.57;;
15082;SDS011;7640;53.116;6.878;2024-02-23T10:56:17;9.63;;;3.03;;
15082;SDS011;7640;53.116;6.878;2024-02-23T10:58:50;7.23;;;2.67;;
15082;SDS011;7640;53.116;6.878;2024-02-23T11:01:20;8.73;;;2.57;;
15082;SDS011;7640;53.116;6.878;2024-02-23T11:03:49;4.87;;;1.80;;
15082;SDS011;7640;53.116;6.878;2024-02-23T11:06:19;8.40;;;1.93;;
15082;SDS011;7640;53.116;6.878;2024-02-23T11:09:04;6.57;;;1.80;;
15082;SDS011;7640;53.116;6.878;2024-02-23T11:11:34;7.27;;;1.97;;
15082;SDS011;7640;53.116;6.878;2024-02-23T11:14:08;6.17;;;1.67;;
15082;SDS011;7640;53.116;6.878;2024-02-23T11:16:38;5.13;;;1.80;;
15082;SDS011;7640;53.116;6.878;2024-02-23T11:19:09;7.03;;;1.73;;
15082;SDS011;7640;53.116;6.878;2024-02-23T11:21:38;5.27;;;1.60;;
15082;SDS011;7640;53.116;6.878;2024-02-23T11:24:07;7.50;;;3.43;;
15082;SDS011;7640;53.116;6.878;2024-02-23T11:26:36;8.43;;;4.33;;
15082;SDS011;7640;53.116;6.878;2024-02-23T11:29:13;10.40;;;4.20;;
15082;SDS011;7640;53.116;6.878;2024-02-23T11:31:45;32.17;;;18.00;;
15082;SDS011;7640;53.116;6.878;2024-02-23T11:34:21;7.80;;;4.20;;
15082;SDS011;7640;53.116;6.878;2024-02-23T11:36:51;17.53;;;9.07;;
15082;SDS011;7640;53.116;6.878;2024-02-23T11:39:20;9.87;;;4.30;;
15082;SDS011;7640;53.116;6.878;2024-02-23T11:41:49;9.07;;;3.37;;
15082;SDS011;7640;53.116;6.878;2024-02-23T11:44:19;8.10;;;3.50;;
15082;SDS011;7640;53.116;6.878;2024-02-23T11:46:48;9.53;;;3.97;;
15082;SDS011;7640;53.116;6.878;2024-02-23T11:49:16;5.90;;;2.97;;
15082;SDS011;7640;53.116;6.878;2024-02-23T11:51:45;6.17;;;1.90;;
15082;SDS011;7640;53.116;6.878;2024-02-23T11:54:19;5.97;;;1.67;;
15082;SDS011;7640;53.116;6.878;2024-02-23T11:56:50;7.27;;;1.80;;
15082;SDS011;7640;53.116;6.878;2024-02-23T11:59:20;4.50;;;1.87;;
15082;SDS011;7640;53.116;6.878;2024-02-23T12:01:50;3.87;;;2.07;;
15082;SDS011;7640;53.116;6.878;2024-02-23T12:04:19;7.43;;;2.00;;
15082;SDS011;7640;53.116;6.878;2024-02-23T12:06:47;4.27;;;1.50;;
15082;SDS011;7640;53.116;6.878;2024-02-23T12:09:17;3.10;;;1.50;;
15082;SDS011;7640;53.116;6.878;2024-02-23T12:11:46;5.97;;;1.70;;
15082;SDS011;7640;53.116;6.878;2024-02-23T12:14:15;4.37;;;1.50;;
15082;SDS011;7640;53.116;6.878;2024-02-23T12:16:46;5.63;;;1.60;;
15082;SDS011;7640;53.116;6.878;2024-02-23T12:19:14;3.27;;;1.83;;
15082;SDS011;7640;53.116;6.878;2024-02-23T12:21:44;5.53;;;2.00;;
15082;SDS011;7640;53.116;6.878;2024-02-23T12:24:13;6.13;;;2.07;;
15082;SDS011;7640;53.116;6.878;2024-02-23T12:26:42;6.23;;;1.60;;
15082;SDS011;7640;53.116;6.878;2024-02-23T12:29:11;5.60;;;1.80;;
15082;SDS011;7640;53.116;6.878;2024-02-23T12:31:39;4.17;;;1.40;;
15082;SDS011;7640;53.116;6.878;2024-02-23T12:34:12;4.47;;;1.60;;
15082;SDS011;7640;53.116;6.878;2024-02-23T12:36:41;5.73;;;1.63;;
15082;SDS011;7640;53.116;6.878;2024-02-23T12:39:10;6.23;;;1.80;;
15082;SDS011;7640;53.116;6.878;2024-02-23T12:41:39;3.77;;;1.40;;
15082;SDS011;7640;53.116;6.878;2024-02-23T12:44:08;4.17;;;1.60;;
15082;SDS011;7640;53.116;6.878;2024-02-23T12:46:37;5.50;;;1.77;;
15082;SDS011;7640;53.116;6.878;2024-02-23T12:49:05;5.03;;;1.70;;
15082;SDS011;7640;53.116;6.878;2024-02-23T12:51:37;3.27;;;1.70;;
15082;SDS011;7640;53.116;6.878;2024-02-23T12:54:06;5.30;;;1.70;;
15082;SDS011;7640;53.116;6.878;2024-02-23T12:56:36;3.17;;;1.80;;
15082;SDS011;7640;53.116;6.878;2024-02-23T12:59:05;5.73;;;1.60;;
15082;SDS011;7640;53.116;6.878;2024-02-23T13:01:35;6.00;;;1.97;;
15082;SDS011;7640;53.116;6.878;2024-02-23T13:04:10;7.17;;;2.00;;
15082;SDS011;7640;53.116;6.878;2024-02-23T13:06:42;5.20;;;2.20;;
15082;SDS011;7640;53.116;6.878;2024-02-23T13:09:10;5.03;;;2.20;;
15082;SDS011;7640;53.116;6.878;2024-02-23T13:11:41;5.80;;;1.87;;
15082;SDS011;7640;53.116;6.878;2024-02-23T13:14:10;6.10;;;2.10;;
15082;SDS011;7640;53.116;6.878;2024-02-23T13:16:38;5.70;;;2.10;;
15082;SDS011;7640;53.116;6.878;2024-02-23T13:19:07;6.40;;;2.30;;
15082;SDS011;7640;53.116;6.878;2024-02-23T13:21:36;5.30;;;1.90;;
15082;SDS011;7640;53.116;6.878;2024-02-23T13:24:07;6.60;;;2.47;;
15082;SDS011;7640;53.116;6.878;2024-02-23T13:26:35;4.70;;;2.20;;
15082;SDS011;7640;53.116;6.878;2024-02-23T13:29:04;8.70;;;2.47;;
15082;SDS011;7640;53.116;6.878;2024-02-23T13:31:32;5.60;;;2.47;;
15082;SDS011;7640;53.116;6.878;2024-02-23T13:34:01;4.00;;;2.33;;
15082;SDS011;7640;53.116;6.878;2024-02-23T13:36:30;4.83;;;2.13;;
15082;SDS011;7640;53.116;6.878;2024-02-23T13:38:58;7.37;;;2.43;;
15082;SDS011;7640;53.116;6.878;2024-02-23T13:41:28;4.30;;;2.37;;
15082;SDS011;7640;53.116;6.878;2024-02-23T13:43:57;6.70;;;2.40;;
15082;SDS011;7640;53.116;6.878;2024-02-23T13:46:25;4.57;;;2.07;;
15082;SDS011;7640;53.116;6.878;2024-02-23T13:49:01;4.50;;;2.20;;
15082;SDS011;7640;53.116;6.878;2024-02-23T13:51:32;6.37;;;2.50;;
15082;SDS011;7640;53.116;6.878;2024-02-23T13:54:01;4.73;;;2.27;;
15082;SDS011;7640;53.116;6.878;2024-02-23T13:56:32;7.20;;;2.40;;
15082;SDS011;7640;53.116;6.878;2024-02-23T13:59:00;6.50;;;2.80;;
15082;SDS011;7640;53.116;6.878;2024-02-23T14:01:29;6.20;;;2.30;;
15082;SDS011;7640;53.116;6.878;2024-02-23T14:03:58;2.80;;;1.83;;
15082;SDS011;7640;53.116;6.878;2024-02-23T14:06:26;5.70;;;2.20;;
15082;SDS011;7640;53.116;6.878;2024-02-23T14:08:55;5.07;;;2.50;;
15082;SDS011;7640;53.116;6.878;2024-02-23T14:11:24;4.97;;;2.40;;
15082;SDS011;7640;53.116;6.878;2024-02-23T14:13:54;6.23;;;2.47;;
15082;SDS011;7640;53.116;6.878;2024-02-23T14:16:23;5.13;;;1.93;;
15082;SDS011;7640;53.116;6.878;2024-02-23T14:18:51;5.20;;;2.50;;
15082;SDS011;7640;53.116;6.878;2024-02-23T14:21:20;5.03;;;2.20;;
15082;SDS011;7640;53.116;6.878;2024-02-23T14:23:51;5.03;;;2.30;;
15082;SDS011;7640;53.116;6.878;2024-02-23T14:26:20;4.63;;;2.60;;
15082;SDS011;7640;53.116;6.878;2024-02-23T14:28:48;4.93;;;2.33;;
15082;SDS011;7640;53.116;6.878;2024-02-23T14:31:18;5.47;;;2.57;;
15082;SDS011;7640;53.116;6.878;2024-02-23T14:33:47;4.10;;;2.43;;
15082;SDS011;7640;53.116;6.878;2024-02-23T14:36:17;2.40;;;2.07;;
15082;SDS011;7640;53.116;6.878;2024-02-23T14:38:46;4.53;;;2.30;;
15082;SDS011;7640;53.116;6.878;2024-02-23T14:41:14;4.30;;;2.13;;
15082;SDS011;7640;53.116;6.878;2024-02-23T14:43:43;4.13;;;2.00;;
15082;SDS011;7640;53.116;6.878;2024-02-23T14:46:12;4.07;;;2.17;;
15082;SDS011;7640;53.116;6.878;2024-02-23T14:48:42;5.97;;;2.60;;
15082;SDS011;7640;53.116;6.878;2024-02-23T14:51:13;3.27;;;2.43;;
15082;SDS011;7640;53.116;6.878;2024-02-23T14:53:41;4.73;;;2.50;;
15082;SDS011;7640;53.116;6.878;2024-02-23T14:56:10;3.33;;;2.50;;
15082;SDS011;7640;53.116;6.878;2024-02-23T14:58:38;5.40;;;2.40;;
15082;SDS011;7640;53.116;6.878;2024-02-23T15:01:07;4.23;;;2.70;;
15082;SDS011;7640;53.116;6.878;2024-02-23T15:03:36;6.73;;;2.10;;
15082;SDS011;7640;53.116;6.878;2024-02-23T15:06:07;4.83;;;2.10;;
15082;SDS011;7640;53.116;6.878;2024-02-23T15:08:37;5.80;;;2.57;;
15082;SDS011;7640;53.116;6.878;2024-02-23T15:11:06;3.37;;;2.33;;